Kezdőlap
METAR-TAF:

METAR-TAF

Repülőterek :

Haikou, Kína

földrajzi szélesség: 19-56-05N, földrajzi hosszúság: 110-27-32E, magasság: 23 m

Jelenlegi meteorológiai megfigyelések

A jelentés 54 perccel ezelõtt készült, 21:00 UTC
Délkeleti szél 2 kt
Hőmérséklet 27°C
Páratartalom 94%
Légköri nyomás 1005 hPa
Látótávolság 10 km, vagy több
felhőtlen 1500 m magasságban, és nincs gomolyfelhõ

METAR: ZJHK 192100Z 14001MPS CAVOK 27/26 Q1005 NOSIG

Idő: 05:54 (21:54 UTC)

Előrejelzés

A jelentés 6 órával és 48 perccel ezelõtt készült, 15:06 UTC
Az előrejelzés 19-én 18 óra UTC és 20-én 18 óra UTC között érvényes
Keleti szél 6 kt
Látótávolság 10 km, vagy több
Szórványos felhőzet 2000 lábon
20-én 05 óra UTC és 20-én 10 óra UTC között ideiglenes
Szórványos felhőzet 2000 lábon
Kevés felhő 2300 lábon, Cumulonimbus.

TAF: ZJHK 191506Z 1918/2018 10003MPS 9999 SCT020 TX35/2006Z TN26/1920Z TEMPO 2005/2010 SCT020 FEW023CB

Meteorológiai megfigyelések és előrejelzések több, mint 4000 repülőtéren (METAR és TAF jelentéseket).

A térképen piros és sárga pontok jelzik az elérhető meteorológiai állomásokat.

Mozgassa az egeret a pont fölött, hogy megjelenjen az állomás neve.

Azután kattintson az időjárási megfigyelések és előrejelzések megtekintéséhez.

A térkép megváltoztatása: kattintson a fekete keresztel jelölt zöld gombra ráközelítéshez, a vonallal jelölt zöld gombra távolításhoz, vagy a zöld nyilakra a szomszédos térképek eléréséhez.


METAR-TAF: